sensor_id;sensor_type;location;lat;lon;timestamp;P1;durP1;ratioP1;P2;durP2;ratioP2
22648;SDS011;11491;41.942;24.220;2024-03-22T00:00:35;14.50;;;8.05;;
22648;SDS011;11491;41.942;24.220;2024-03-22T00:03:05;13.23;;;7.40;;
22648;SDS011;11491;41.942;24.220;2024-03-22T00:05:31;13.90;;;7.57;;
22648;SDS011;11491;41.942;24.220;2024-03-22T00:07:58;13.85;;;8.10;;
22648;SDS011;11491;41.942;24.220;2024-03-22T00:10:23;13.27;;;7.90;;
22648;SDS011;11491;41.942;24.220;2024-03-22T00:12:50;15.38;;;8.57;;
22648;SDS011;11491;41.942;24.220;2024-03-22T00:15:17;21.70;;;10.35;;
22648;SDS011;11491;41.942;24.220;2024-03-22T00:17:44;16.00;;;8.73;;
22648;SDS011;11491;41.942;24.220;2024-03-22T00:20:10;17.85;;;9.00;;
22648;SDS011;11491;41.942;24.220;2024-03-22T00:22:37;15.30;;;8.98;;
22648;SDS011;11491;41.942;24.220;2024-03-22T00:25:03;15.15;;;9.30;;
22648;SDS011;11491;41.942;24.220;2024-03-22T00:27:31;17.98;;;9.38;;
22648;SDS011;11491;41.942;24.220;2024-03-22T00:29:57;15.45;;;10.57;;
22648;SDS011;11491;41.942;24.220;2024-03-22T00:32:25;18.02;;;10.88;;
22648;SDS011;11491;41.942;24.220;2024-03-22T00:34:50;22.75;;;12.68;;
22648;SDS011;11491;41.942;24.220;2024-03-22T00:37:17;21.38;;;12.70;;
22648;SDS011;11491;41.942;24.220;2024-03-22T00:39:43;16.17;;;8.13;;
22648;SDS011;11491;41.942;24.220;2024-03-22T00:42:10;15.05;;;7.65;;
22648;SDS011;11491;41.942;24.220;2024-03-22T00:44:36;11.70;;;6.50;;
22648;SDS011;11491;41.942;24.220;2024-03-22T00:47:03;11.13;;;5.55;;
22648;SDS011;11491;41.942;24.220;2024-03-22T00:49:32;11.20;;;5.93;;
22648;SDS011;11491;41.942;24.220;2024-03-22T00:51:59;9.93;;;5.90;;
22648;SDS011;11491;41.942;24.220;2024-03-22T00:54:24;10.70;;;5.63;;
22648;SDS011;11491;41.942;24.220;2024-03-22T00:56:51;9.63;;;6.03;;
22648;SDS011;11491;41.942;24.220;2024-03-22T00:59:17;10.73;;;6.00;;
22648;SDS011;11491;41.942;24.220;2024-03-22T01:01:43;10.57;;;6.57;;
22648;SDS011;11491;41.942;24.220;2024-03-22T01:04:09;13.38;;;7.50;;
22648;SDS011;11491;41.942;24.220;2024-03-22T01:06:37;15.32;;;8.07;;
22648;SDS011;11491;41.942;24.220;2024-03-22T01:09:05;16.08;;;8.45;;
22648;SDS011;11491;41.942;24.220;2024-03-22T01:11:32;14.57;;;8.57;;
22648;SDS011;11491;41.942;24.220;2024-03-22T01:13:58;16.15;;;8.43;;
22648;SDS011;11491;41.942;24.220;2024-03-22T01:16:24;17.48;;;9.57;;
22648;SDS011;11491;41.942;24.220;2024-03-22T01:18:50;14.38;;;9.50;;
22648;SDS011;11491;41.942;24.220;2024-03-22T01:21:17;17.95;;;9.05;;
22648;SDS011;11491;41.942;24.220;2024-03-22T01:23:44;14.52;;;9.00;;
22648;SDS011;11491;41.942;24.220;2024-03-22T01:26:11;12.82;;;7.70;;
22648;SDS011;11491;41.942;24.220;2024-03-22T01:28:36;17.20;;;8.48;;
22648;SDS011;11491;41.942;24.220;2024-03-22T01:31:03;13.75;;;7.00;;
22648;SDS011;11491;41.942;24.220;2024-03-22T01:33:29;14.95;;;7.45;;
22648;SDS011;11491;41.942;24.220;2024-03-22T01:35:56;9.95;;;6.80;;
22648;SDS011;11491;41.942;24.220;2024-03-22T01:38:21;12.00;;;5.70;;
22648;SDS011;11491;41.942;24.220;2024-03-22T01:40:49;9.75;;;5.38;;
22648;SDS011;11491;41.942;24.220;2024-03-22T01:43:15;11.27;;;5.78;;
22648;SDS011;11491;41.942;24.220;2024-03-22T01:45:42;9.77;;;5.55;;
22648;SDS011;11491;41.942;24.220;2024-03-22T01:48:08;10.45;;;5.63;;
22648;SDS011;11491;41.942;24.220;2024-03-22T01:50:34;9.93;;;5.82;;
22648;SDS011;11491;41.942;24.220;2024-03-22T01:53:00;10.95;;;5.40;;
22648;SDS011;11491;41.942;24.220;2024-03-22T01:55:27;12.00;;;5.88;;
22648;SDS011;11491;41.942;24.220;2024-03-22T01:57:55;8.65;;;5.57;;
22648;SDS011;11491;41.942;24.220;2024-03-22T02:00:23;12.05;;;4.93;;
22648;SDS011;11491;41.942;24.220;2024-03-22T02:02:48;9.40;;;4.80;;
22648;SDS011;11491;41.942;24.220;2024-03-22T02:05:15;9.07;;;5.55;;
22648;SDS011;11491;41.942;24.220;2024-03-22T02:07:44;9.85;;;5.30;;
22648;SDS011;11491;41.942;24.220;2024-03-22T02:10:11;8.40;;;5.15;;
22648;SDS011;11491;41.942;24.220;2024-03-22T02:12:37;8.77;;;5.20;;
22648;SDS011;11491;41.942;24.220;2024-03-22T02:15:06;10.27;;;5.63;;
22648;SDS011;11491;41.942;24.220;2024-03-22T02:17:33;11.40;;;4.93;;
22648;SDS011;11491;41.942;24.220;2024-03-22T02:20:00;9.27;;;4.70;;
22648;SDS011;11491;41.942;24.220;2024-03-22T02:22:27;11.15;;;5.28;;
22648;SDS011;11491;41.942;24.220;2024-03-22T02:24:55;9.23;;;4.80;;
22648;SDS011;11491;41.942;24.220;2024-03-22T02:27:21;8.38;;;5.50;;
22648;SDS011;11491;41.942;24.220;2024-03-22T02:29:48;8.35;;;5.25;;
22648;SDS011;11491;41.942;24.220;2024-03-22T02:32:13;10.15;;;5.38;;
22648;SDS011;11491;41.942;24.220;2024-03-22T02:34:40;9.10;;;5.38;;
22648;SDS011;11491;41.942;24.220;2024-03-22T02:37:06;9.25;;;5.82;;
22648;SDS011;11491;41.942;24.220;2024-03-22T02:39:33;10.43;;;5.55;;
22648;SDS011;11491;41.942;24.220;2024-03-22T02:42:00;7.93;;;4.93;;
22648;SDS011;11491;41.942;24.220;2024-03-22T02:44:26;9.77;;;5.40;;
22648;SDS011;11491;41.942;24.220;2024-03-22T02:46:52;10.38;;;5.55;;
22648;SDS011;11491;41.942;24.220;2024-03-22T02:49:19;10.00;;;6.07;;
22648;SDS011;11491;41.942;24.220;2024-03-22T02:51:44;8.32;;;5.32;;
22648;SDS011;11491;41.942;24.220;2024-03-22T02:54:12;8.80;;;5.43;;
22648;SDS011;11491;41.942;24.220;2024-03-22T02:56:37;10.65;;;5.10;;
22648;SDS011;11491;41.942;24.220;2024-03-22T02:59:05;10.00;;;5.60;;
22648;SDS011;11491;41.942;24.220;2024-03-22T03:01:31;9.27;;;5.75;;
22648;SDS011;11491;41.942;24.220;2024-03-22T03:03:58;9.80;;;5.90;;
22648;SDS011;11491;41.942;24.220;2024-03-22T03:06:23;13.70;;;7.55;;
22648;SDS011;11491;41.942;24.220;2024-03-22T03:08:50;18.05;;;10.55;;
22648;SDS011;11491;41.942;24.220;2024-03-22T03:11:16;14.88;;;11.13;;
22648;SDS011;11491;41.942;24.220;2024-03-22T03:13:43;12.40;;;7.57;;
22648;SDS011;11491;41.942;24.220;2024-03-22T03:16:10;12.25;;;6.85;;
22648;SDS011;11491;41.942;24.220;2024-03-22T03:18:36;11.10;;;6.85;;
22648;SDS011;11491;41.942;24.220;2024-03-22T03:21:02;13.07;;;7.25;;
22648;SDS011;11491;41.942;24.220;2024-03-22T03:23:29;10.05;;;6.57;;
22648;SDS011;11491;41.942;24.220;2024-03-22T03:25:55;12.23;;;5.70;;
22648;SDS011;11491;41.942;24.220;2024-03-22T03:28:21;10.57;;;6.30;;
22648;SDS011;11491;41.942;24.220;2024-03-22T03:30:47;9.70;;;6.25;;
22648;SDS011;11491;41.942;24.220;2024-03-22T03:33:15;9.18;;;5.05;;
22648;SDS011;11491;41.942;24.220;2024-03-22T03:35:44;11.80;;;6.80;;
22648;SDS011;11491;41.942;24.220;2024-03-22T03:38:11;10.50;;;7.22;;
22648;SDS011;11491;41.942;24.220;2024-03-22T03:40:37;8.55;;;6.03;;
22648;SDS011;11491;41.942;24.220;2024-03-22T03:43:04;9.57;;;5.88;;
22648;SDS011;11491;41.942;24.220;2024-03-22T03:45:30;9.93;;;5.53;;
22648;SDS011;11491;41.942;24.220;2024-03-22T03:47:56;10.38;;;5.82;;
22648;SDS011;11491;41.942;24.220;2024-03-22T03:50:23;8.65;;;5.82;;
22648;SDS011;11491;41.942;24.220;2024-03-22T03:52:50;10.15;;;6.93;;
22648;SDS011;11491;41.942;24.220;2024-03-22T03:55:16;11.93;;;6.95;;
22648;SDS011;11491;41.942;24.220;2024-03-22T03:57:42;14.98;;;9.18;;
22648;SDS011;11491;41.942;24.220;2024-03-22T04:00:09;16.02;;;9.13;;
22648;SDS011;11491;41.942;24.220;2024-03-22T04:02:36;22.90;;;13.35;;
22648;SDS011;11491;41.942;24.220;2024-03-22T04:05:01;32.65;;;21.90;;
22648;SDS011;11491;41.942;24.220;2024-03-22T04:07:29;11.82;;;8.38;;
22648;SDS011;11491;41.942;24.220;2024-03-22T04:09:55;10.85;;;7.72;;
22648;SDS011;11491;41.942;24.220;2024-03-22T04:12:22;14.25;;;10.07;;
22648;SDS011;11491;41.942;24.220;2024-03-22T04:14:48;14.68;;;8.73;;
22648;SDS011;11491;41.942;24.220;2024-03-22T04:17:14;16.52;;;9.35;;
22648;SDS011;11491;41.942;24.220;2024-03-22T04:19:40;17.35;;;10.27;;
22648;SDS011;11491;41.942;24.220;2024-03-22T04:22:07;18.95;;;11.70;;
22648;SDS011;11491;41.942;24.220;2024-03-22T04:24:34;19.55;;;12.77;;
22648;SDS011;11491;41.942;24.220;2024-03-22T04:27:00;33.05;;;23.23;;
22648;SDS011;11491;41.942;24.220;2024-03-22T04:29:27;34.65;;;23.25;;
22648;SDS011;11491;41.942;24.220;2024-03-22T04:31:53;36.35;;;25.58;;
22648;SDS011;11491;41.942;24.220;2024-03-22T04:34:19;21.58;;;15.73;;
22648;SDS011;11491;41.942;24.220;2024-03-22T04:36:46;21.85;;;15.63;;
22648;SDS011;11491;41.942;24.220;2024-03-22T04:39:11;21.25;;;14.43;;
22648;SDS011;11491;41.942;24.220;2024-03-22T04:41:40;19.27;;;13.60;;
22648;SDS011;11491;41.942;24.220;2024-03-22T04:44:07;21.83;;;14.25;;
22648;SDS011;11491;41.942;24.220;2024-03-22T04:46:32;50.50;;;29.02;;
22648;SDS011;11491;41.942;24.220;2024-03-22T04:48:59;34.85;;;25.00;;
22648;SDS011;11491;41.942;24.220;2024-03-22T04:51:25;37.67;;;22.80;;
22648;SDS011;11491;41.942;24.220;2024-03-22T04:53:51;37.90;;;22.00;;
22648;SDS011;11491;41.942;24.220;2024-03-22T04:56:17;32.60;;;16.70;;
22648;SDS011;11491;41.942;24.220;2024-03-22T04:58:45;30.13;;;18.25;;
22648;SDS011;11491;41.942;24.220;2024-03-22T05:01:11;43.15;;;27.38;;
22648;SDS011;11491;41.942;24.220;2024-03-22T05:03:38;31.67;;;22.60;;
22648;SDS011;11491;41.942;24.220;2024-03-22T05:06:06;37.08;;;25.08;;
22648;SDS011;11491;41.942;24.220;2024-03-22T05:08:32;36.15;;;23.65;;
22648;SDS011;11491;41.942;24.220;2024-03-22T05:10:58;37.58;;;24.25;;
22648;SDS011;11491;41.942;24.220;2024-03-22T05:13:25;41.03;;;26.20;;
22648;SDS011;11491;41.942;24.220;2024-03-22T05:15:52;47.20;;;26.75;;
22648;SDS011;11491;41.942;24.220;2024-03-22T05:18:19;45.28;;;25.40;;
22648;SDS011;11491;41.942;24.220;2024-03-22T05:20:44;59.75;;;36.30;;
22648;SDS011;11491;41.942;24.220;2024-03-22T05:23:11;49.50;;;27.30;;
22648;SDS011;11491;41.942;24.220;2024-03-22T05:25:37;55.75;;;34.55;;
22648;SDS011;11491;41.942;24.220;2024-03-22T05:28:04;58.85;;;35.55;;
22648;SDS011;11491;41.942;24.220;2024-03-22T05:30:29;42.38;;;27.00;;
22648;SDS011;11491;41.942;24.220;2024-03-22T05:32:58;50.33;;;33.05;;
22648;SDS011;11491;41.942;24.220;2024-03-22T05:35:24;50.80;;;32.10;;
22648;SDS011;11491;41.942;24.220;2024-03-22T05:37:50;37.92;;;24.38;;
22648;SDS011;11491;41.942;24.220;2024-03-22T05:40:16;43.88;;;29.15;;
22648;SDS011;11491;41.942;24.220;2024-03-22T05:42:43;54.92;;;33.35;;
22648;SDS011;11491;41.942;24.220;2024-03-22T05:45:09;59.70;;;37.10;;
22648;SDS011;11491;41.942;24.220;2024-03-22T05:47:35;90.47;;;51.20;;
22648;SDS011;11491;41.942;24.220;2024-03-22T05:50:07;87.05;;;53.30;;
22648;SDS011;11491;41.942;24.220;2024-03-22T05:52:34;119.30;;;60.40;;
22648;SDS011;11491;41.942;24.220;2024-03-22T05:55:00;134.60;;;66.05;;
22648;SDS011;11491;41.942;24.220;2024-03-22T05:57:27;141.80;;;65.00;;
22648;SDS011;11491;41.942;24.220;2024-03-22T05:59:53;193.43;;;87.00;;
22648;SDS011;11491;41.942;24.220;2024-03-22T06:02:20;270.63;;;120.70;;
22648;SDS011;11491;41.942;24.220;2024-03-22T06:04:46;246.52;;;115.47;;
22648;SDS011;11491;41.942;24.220;2024-03-22T06:07:14;159.07;;;75.32;;
22648;SDS011;11491;41.942;24.220;2024-03-22T06:09:42;119.90;;;53.53;;
22648;SDS011;11491;41.942;24.220;2024-03-22T06:12:11;120.88;;;59.83;;
22648;SDS011;11491;41.942;24.220;2024-03-22T06:14:38;153.00;;;75.70;;
22648;SDS011;11491;41.942;24.220;2024-03-22T06:17:04;97.03;;;47.35;;
22648;SDS011;11491;41.942;24.220;2024-03-22T06:19:31;122.53;;;58.25;;
22648;SDS011;11491;41.942;24.220;2024-03-22T06:21:57;109.03;;;54.58;;
22648;SDS011;11491;41.942;24.220;2024-03-22T06:24:25;107.38;;;56.03;;
22648;SDS011;11491;41.942;24.220;2024-03-22T06:26:51;107.80;;;56.92;;
22648;SDS011;11491;41.942;24.220;2024-03-22T06:29:18;136.27;;;68.20;;
22648;SDS011;11491;41.942;24.220;2024-03-22T06:31:43;121.57;;;57.85;;
22648;SDS011;11491;41.942;24.220;2024-03-22T06:34:10;99.10;;;51.83;;
22648;SDS011;11491;41.942;24.220;2024-03-22T06:36:36;69.50;;;37.05;;
22648;SDS011;11491;41.942;24.220;2024-03-22T06:39:03;50.80;;;26.52;;
22648;SDS011;11491;41.942;24.220;2024-03-22T06:41:33;34.58;;;19.30;;
22648;SDS011;11491;41.942;24.220;2024-03-22T06:44:00;19.98;;;12.57;;
22648;SDS011;11491;41.942;24.220;2024-03-22T06:46:26;16.75;;;9.63;;
22648;SDS011;11491;41.942;24.220;2024-03-22T06:48:53;13.70;;;7.57;;
22648;SDS011;11491;41.942;24.220;2024-03-22T06:51:19;15.18;;;8.18;;
22648;SDS011;11491;41.942;24.220;2024-03-22T06:53:46;14.07;;;8.00;;
22648;SDS011;11491;41.942;24.220;2024-03-22T06:56:13;13.85;;;8.10;;
22648;SDS011;11491;41.942;24.220;2024-03-22T06:58:41;14.82;;;8.02;;
22648;SDS011;11491;41.942;24.220;2024-03-22T07:01:06;10.52;;;7.20;;
22648;SDS011;11491;41.942;24.220;2024-03-22T07:03:33;14.10;;;10.90;;
22648;SDS011;11491;41.942;24.220;2024-03-22T07:05:59;10.18;;;6.90;;
22648;SDS011;11491;41.942;24.220;2024-03-22T07:08:26;13.65;;;8.80;;
22648;SDS011;11491;41.942;24.220;2024-03-22T07:10:51;13.15;;;9.55;;
22648;SDS011;11491;41.942;24.220;2024-03-22T07:13:20;12.27;;;8.65;;
22648;SDS011;11491;41.942;24.220;2024-03-22T07:15:47;10.45;;;8.13;;
22648;SDS011;11491;41.942;24.220;2024-03-22T07:18:14;12.48;;;9.35;;
22648;SDS011;11491;41.942;24.220;2024-03-22T07:20:40;13.98;;;9.70;;
22648;SDS011;11491;41.942;24.220;2024-03-22T07:23:07;11.40;;;7.75;;
22648;SDS011;11491;41.942;24.220;2024-03-22T07:25:33;9.07;;;7.25;;
22648;SDS011;11491;41.942;24.220;2024-03-22T07:28:00;14.43;;;9.40;;
22648;SDS011;11491;41.942;24.220;2024-03-22T07:30:26;13.18;;;8.82;;
22648;SDS011;11491;41.942;24.220;2024-03-22T07:32:54;13.30;;;8.70;;
22648;SDS011;11491;41.942;24.220;2024-03-22T07:35:19;12.52;;;7.45;;
22648;SDS011;11491;41.942;24.220;2024-03-22T07:37:46;14.63;;;8.15;;
22648;SDS011;11491;41.942;24.220;2024-03-22T07:40:12;11.70;;;8.68;;
22648;SDS011;11491;41.942;24.220;2024-03-22T07:42:39;19.60;;;12.52;;
22648;SDS011;11491;41.942;24.220;2024-03-22T07:45:05;15.05;;;10.90;;
22648;SDS011;11491;41.942;24.220;2024-03-22T07:47:32;21.25;;;16.10;;
22648;SDS011;11491;41.942;24.220;2024-03-22T07:49:59;12.25;;;8.57;;
22648;SDS011;11491;41.942;24.220;2024-03-22T07:52:25;12.73;;;9.07;;
22648;SDS011;11491;41.942;24.220;2024-03-22T07:54:51;12.73;;;8.82;;
22648;SDS011;11491;41.942;24.220;2024-03-22T07:57:18;9.35;;;6.90;;
22648;SDS011;11491;41.942;24.220;2024-03-22T07:59:45;14.18;;;10.52;;
22648;SDS011;11491;41.942;24.220;2024-03-22T08:02:12;10.93;;;8.13;;
22648;SDS011;11491;41.942;24.220;2024-03-22T08:04:38;10.00;;;7.25;;
22648;SDS011;11491;41.942;24.220;2024-03-22T08:07:06;9.52;;;5.57;;
22648;SDS011;11491;41.942;24.220;2024-03-22T08:09:32;9.90;;;6.13;;
22648;SDS011;11491;41.942;24.220;2024-03-22T08:11:58;14.38;;;9.40;;
22648;SDS011;11491;41.942;24.220;2024-03-22T08:14:24;10.38;;;6.00;;
22648;SDS011;11491;41.942;24.220;2024-03-22T08:16:51;14.30;;;10.32;;
22648;SDS011;11491;41.942;24.220;2024-03-22T08:19:17;7.43;;;5.43;;
22648;SDS011;11491;41.942;24.220;2024-03-22T08:21:43;7.22;;;5.28;;
22648;SDS011;11491;41.942;24.220;2024-03-22T08:24:10;7.35;;;4.95;;
22648;SDS011;11491;41.942;24.220;2024-03-22T08:26:37;10.07;;;7.68;;
22648;SDS011;11491;41.942;24.220;2024-03-22T08:29:03;6.85;;;4.28;;
22648;SDS011;11491;41.942;24.220;2024-03-22T08:31:30;15.20;;;8.52;;
22648;SDS011;11491;41.942;24.220;2024-03-22T08:33:55;8.63;;;4.75;;
22648;SDS011;11491;41.942;24.220;2024-03-22T08:36:22;13.02;;;6.70;;
22648;SDS011;11491;41.942;24.220;2024-03-22T08:38:48;7.47;;;4.55;;
22648;SDS011;11491;41.942;24.220;2024-03-22T08:41:16;8.95;;;6.07;;
22648;SDS011;11491;41.942;24.220;2024-03-22T08:43:42;6.70;;;5.20;;
22648;SDS011;11491;41.942;24.220;2024-03-22T08:46:10;4.82;;;3.75;;
22648;SDS011;11491;41.942;24.220;2024-03-22T08:48:36;8.88;;;4.85;;
22648;SDS011;11491;41.942;24.220;2024-03-22T08:51:03;9.32;;;5.60;;
22648;SDS011;11491;41.942;24.220;2024-03-22T08:53:28;6.22;;;3.80;;
22648;SDS011;11491;41.942;24.220;2024-03-22T08:55:55;11.55;;;6.90;;
22648;SDS011;11491;41.942;24.220;2024-03-22T08:58:22;12.40;;;7.22;;
22648;SDS011;11491;41.942;24.220;2024-03-22T09:00:49;6.68;;;3.70;;
22648;SDS011;11491;41.942;24.220;2024-03-22T09:03:15;9.70;;;5.07;;
22648;SDS011;11491;41.942;24.220;2024-03-22T09:05:43;6.70;;;5.07;;
22648;SDS011;11491;41.942;24.220;2024-03-22T09:08:09;5.93;;;3.50;;
22648;SDS011;11491;41.942;24.220;2024-03-22T09:10:35;6.05;;;4.53;;
22648;SDS011;11491;41.942;24.220;2024-03-22T09:13:01;8.00;;;5.95;;
22648;SDS011;11491;41.942;24.220;2024-03-22T09:15:29;13.38;;;9.35;;
22648;SDS011;11491;41.942;24.220;2024-03-22T09:17:56;5.60;;;4.13;;
22648;SDS011;11491;41.942;24.220;2024-03-22T09:20:22;5.50;;;4.88;;
22648;SDS011;11491;41.942;24.220;2024-03-22T09:22:48;5.85;;;3.45;;
22648;SDS011;11491;41.942;24.220;2024-03-22T09:25:15;7.90;;;6.45;;
22648;SDS011;11491;41.942;24.220;2024-03-22T09:27:41;9.77;;;7.72;;
22648;SDS011;11491;41.942;24.220;2024-03-22T09:30:08;11.43;;;5.28;;
22648;SDS011;11491;41.942;24.220;2024-03-22T09:32:36;7.25;;;5.53;;
22648;SDS011;11491;41.942;24.220;2024-03-22T09:35:03;16.67;;;12.02;;
22648;SDS011;11491;41.942;24.220;2024-03-22T09:37:29;16.20;;;12.15;;
22648;SDS011;11491;41.942;24.220;2024-03-22T09:39:56;11.75;;;6.85;;
22648;SDS011;11491;41.942;24.220;2024-03-22T09:42:22;9.70;;;7.25;;
22648;SDS011;11491;41.942;24.220;2024-03-22T09:44:50;8.82;;;6.50;;
22648;SDS011;11491;41.942;24.220;2024-03-22T09:47:16;9.05;;;6.68;;
22648;SDS011;11491;41.942;24.220;2024-03-22T09:49:46;7.47;;;5.25;;
22648;SDS011;11491;41.942;24.220;2024-03-22T09:52:14;7.03;;;4.65;;
22648;SDS011;11491;41.942;24.220;2024-03-22T09:54:42;11.77;;;9.05;;
22648;SDS011;11491;41.942;24.220;2024-03-22T09:57:10;4.43;;;3.45;;
22648;SDS011;11491;41.942;24.220;2024-03-22T09:59:38;18.85;;;11.25;;
22648;SDS011;11491;41.942;24.220;2024-03-22T10:02:06;6.95;;;4.22;;
22648;SDS011;11491;41.942;24.220;2024-03-22T10:04:36;8.15;;;6.63;;
22648;SDS011;11491;41.942;24.220;2024-03-22T10:07:04;5.97;;;4.50;;
22648;SDS011;11491;41.942;24.220;2024-03-22T10:09:30;9.70;;;4.30;;
22648;SDS011;11491;41.942;24.220;2024-03-22T10:11:57;9.18;;;5.68;;
22648;SDS011;11491;41.942;24.220;2024-03-22T10:14:23;8.95;;;5.68;;
22648;SDS011;11491;41.942;24.220;2024-03-22T10:16:53;4.85;;;3.83;;
22648;SDS011;11491;41.942;24.220;2024-03-22T10:19:19;13.55;;;8.05;;
22648;SDS011;11491;41.942;24.220;2024-03-22T10:21:47;4.63;;;3.35;;
22648;SDS011;11491;41.942;24.220;2024-03-22T10:26:43;9.20;;;7.38;;
22648;SDS011;11491;41.942;24.220;2024-03-22T10:29:10;6.20;;;4.80;;
22648;SDS011;11491;41.942;24.220;2024-03-22T10:31:38;8.30;;;4.93;;
22648;SDS011;11491;41.942;24.220;2024-03-22T10:34:04;7.53;;;6.72;;
22648;SDS011;11491;41.942;24.220;2024-03-22T10:36:31;6.63;;;4.05;;
22648;SDS011;11491;41.942;24.220;2024-03-22T10:38:58;5.32;;;4.30;;
22648;SDS011;11491;41.942;24.220;2024-03-22T10:41:26;8.40;;;7.25;;
22648;SDS011;11491;41.942;24.220;2024-03-22T10:43:52;6.57;;;4.95;;
22648;SDS011;11491;41.942;24.220;2024-03-22T10:46:19;6.75;;;4.47;;
22648;SDS011;11491;41.942;24.220;2024-03-22T10:48:46;6.07;;;3.25;;
22648;SDS011;11491;41.942;24.220;2024-03-22T10:51:13;14.18;;;8.02;;
22648;SDS011;11491;41.942;24.220;2024-03-22T10:53:41;11.75;;;7.40;;
22648;SDS011;11491;41.942;24.220;2024-03-22T10:56:08;11.30;;;8.30;;
22648;SDS011;11491;41.942;24.220;2024-03-22T10:58:37;8.02;;;5.85;;
22648;SDS011;11491;41.942;24.220;2024-03-22T11:01:07;6.47;;;3.78;;
22648;SDS011;11491;41.942;24.220;2024-03-22T11:03:47;5.15;;;4.10;;
22648;SDS011;11491;41.942;24.220;2024-03-22T11:06:17;11.38;;;7.28;;
22648;SDS011;11491;41.942;24.220;2024-03-22T11:08:43;14.52;;;9.70;;
22648;SDS011;11491;41.942;24.220;2024-03-22T11:11:11;15.48;;;11.93;;
22648;SDS011;11491;41.942;24.220;2024-03-22T11:13:39;6.05;;;4.85;;
22648;SDS011;11491;41.942;24.220;2024-03-22T11:16:06;22.02;;;15.57;;
22648;SDS011;11491;41.942;24.220;2024-03-22T11:18:35;3.92;;;3.00;;
22648;SDS011;11491;41.942;24.220;2024-03-22T11:21:02;16.25;;;10.60;;
22648;SDS011;11491;41.942;24.220;2024-03-22T11:23:29;27.67;;;18.25;;
22648;SDS011;11491;41.942;24.220;2024-03-22T11:25:56;30.17;;;20.52;;
22648;SDS011;11491;41.942;24.220;2024-03-22T11:28:22;30.15;;;20.15;;
22648;SDS011;11491;41.942;24.220;2024-03-22T11:30:50;6.28;;;3.05;;
22648;SDS011;11491;41.942;24.220;2024-03-22T11:33:15;18.23;;;15.43;;
22648;SDS011;11491;41.942;24.220;2024-03-22T11:35:42;7.20;;;4.35;;
22648;SDS011;11491;41.942;24.220;2024-03-22T11:38:09;7.75;;;4.95;;
22648;SDS011;11491;41.942;24.220;2024-03-22T11:40:36;6.55;;;4.45;;
22648;SDS011;11491;41.942;24.220;2024-03-22T11:43:03;4.82;;;3.50;;
22648;SDS011;11491;41.942;24.220;2024-03-22T11:45:30;9.88;;;6.43;;
22648;SDS011;11491;41.942;24.220;2024-03-22T11:48:01;4.50;;;2.60;;
22648;SDS011;11491;41.942;24.220;2024-03-22T11:50:28;4.13;;;3.00;;
22648;SDS011;11491;41.942;24.220;2024-03-22T11:52:54;7.28;;;3.17;;
22648;SDS011;11491;41.942;24.220;2024-03-22T11:55:20;11.75;;;6.13;;
22648;SDS011;11491;41.942;24.220;2024-03-22T11:57:47;7.07;;;3.83;;
22648;SDS011;11491;41.942;24.220;2024-03-22T12:00:16;5.43;;;2.97;;
22648;SDS011;11491;41.942;24.220;2024-03-22T12:02:43;10.25;;;7.60;;
22648;SDS011;11491;41.942;24.220;2024-03-22T12:05:12;15.52;;;13.43;;
22648;SDS011;11491;41.942;24.220;2024-03-22T12:07:39;6.38;;;4.63;;
22648;SDS011;11491;41.942;24.220;2024-03-22T12:10:06;10.88;;;7.55;;
22648;SDS011;11491;41.942;24.220;2024-03-22T12:12:33;9.10;;;6.25;;
22648;SDS011;11491;41.942;24.220;2024-03-22T12:14:59;6.85;;;5.20;;
22648;SDS011;11491;41.942;24.220;2024-03-22T12:17:25;11.50;;;9.18;;
22648;SDS011;11491;41.942;24.220;2024-03-22T12:19:52;10.60;;;7.85;;
22648;SDS011;11491;41.942;24.220;2024-03-22T12:22:20;5.10;;;3.67;;
22648;SDS011;11491;41.942;24.220;2024-03-22T12:24:46;5.75;;;4.10;;
22648;SDS011;11491;41.942;24.220;2024-03-22T12:27:12;9.88;;;6.53;;
22648;SDS011;11491;41.942;24.220;2024-03-22T12:29:39;5.80;;;5.20;;
22648;SDS011;11491;41.942;24.220;2024-03-22T12:32:05;6.95;;;6.18;;
22648;SDS011;11491;41.942;24.220;2024-03-22T12:34:32;10.93;;;9.82;;
22648;SDS011;11491;41.942;24.220;2024-03-22T12:36:58;12.02;;;9.10;;
22648;SDS011;11491;41.942;24.220;2024-03-22T12:39:27;5.43;;;3.38;;
22648;SDS011;11491;41.942;24.220;2024-03-22T12:41:52;6.25;;;5.10;;
22648;SDS011;11491;41.942;24.220;2024-03-22T12:44:19;15.00;;;11.38;;
22648;SDS011;11491;41.942;24.220;2024-03-22T12:46:45;18.33;;;12.80;;
22648;SDS011;11491;41.942;24.220;2024-03-22T12:49:12;8.43;;;5.55;;
22648;SDS011;11491;41.942;24.220;2024-03-22T12:51:38;6.43;;;4.05;;
22648;SDS011;11491;41.942;24.220;2024-03-22T12:54:05;7.65;;;4.68;;
22648;SDS011;11491;41.942;24.220;2024-03-22T12:56:34;8.85;;;5.75;;
22648;SDS011;11491;41.942;24.220;2024-03-22T12:59:02;4.75;;;3.90;;
22648;SDS011;11491;41.942;24.220;2024-03-22T13:01:27;18.65;;;16.85;;
22648;SDS011;11491;41.942;24.220;2024-03-22T13:03:54;7.90;;;5.63;;
22648;SDS011;11491;41.942;24.220;2024-03-22T13:06:20;6.95;;;6.25;;
22648;SDS011;11491;41.942;24.220;2024-03-22T13:08:46;5.78;;;5.18;;
22648;SDS011;11491;41.942;24.220;2024-03-22T13:11:12;8.45;;;7.47;;
22648;SDS011;11491;41.942;24.220;2024-03-22T13:13:40;4.82;;;3.50;;
22648;SDS011;11491;41.942;24.220;2024-03-22T13:16:06;8.30;;;4.65;;
22648;SDS011;11491;41.942;24.220;2024-03-22T13:18:34;17.73;;;7.15;;
22648;SDS011;11491;41.942;24.220;2024-03-22T13:21:00;4.55;;;2.85;;
22648;SDS011;11491;41.942;24.220;2024-03-22T13:23:28;4.45;;;4.03;;
22648;SDS011;11491;41.942;24.220;2024-03-22T13:25:53;6.78;;;6.07;;
22648;SDS011;11491;41.942;24.220;2024-03-22T13:28:21;3.80;;;3.38;;
22648;SDS011;11491;41.942;24.220;2024-03-22T13:30:49;18.10;;;12.73;;
22648;SDS011;11491;41.942;24.220;2024-03-22T13:33:15;8.98;;;5.70;;
22648;SDS011;11491;41.942;24.220;2024-03-22T13:35:41;7.22;;;4.72;;
22648;SDS011;11491;41.942;24.220;2024-03-22T13:38:11;6.05;;;5.15;;
22648;SDS011;11491;41.942;24.220;2024-03-22T13:40:38;7.38;;;3.55;;
22648;SDS011;11491;41.942;24.220;2024-03-22T13:43:06;4.35;;;3.95;;
22648;SDS011;11491;41.942;24.220;2024-03-22T13:45:38;7.40;;;6.10;;
22648;SDS011;11491;41.942;24.220;2024-03-22T13:48:10;7.65;;;6.72;;
22648;SDS011;11491;41.942;24.220;2024-03-22T13:50:36;17.33;;;12.60;;
22648;SDS011;11491;41.942;24.220;2024-03-22T13:53:03;9.48;;;6.93;;
22648;SDS011;11491;41.942;24.220;2024-03-22T13:55:29;18.58;;;8.27;;
22648;SDS011;11491;41.942;24.220;2024-03-22T13:57:55;15.27;;;9.57;;
22648;SDS011;11491;41.942;24.220;2024-03-22T14:00:21;10.77;;;7.55;;
22648;SDS011;11491;41.942;24.220;2024-03-22T14:02:50;20.45;;;10.75;;
22648;SDS011;11491;41.942;24.220;2024-03-22T14:05:19;18.02;;;12.80;;
22648;SDS011;11491;41.942;24.220;2024-03-22T14:07:46;8.80;;;5.85;;
22648;SDS011;11491;41.942;24.220;2024-03-22T14:10:12;10.63;;;5.57;;
22648;SDS011;11491;41.942;24.220;2024-03-22T14:12:41;9.90;;;5.18;;
22648;SDS011;11491;41.942;24.220;2024-03-22T14:15:07;16.88;;;11.02;;
22648;SDS011;11491;41.942;24.220;2024-03-22T14:17:34;6.75;;;5.57;;
22648;SDS011;11491;41.942;24.220;2024-03-22T14:20:00;9.38;;;6.95;;
22648;SDS011;11491;41.942;24.220;2024-03-22T14:22:32;9.02;;;5.32;;